createdAt,value
2022-09-28T00:01:20.504Z,99.90
2022-09-28T00:03:57.570Z,99.90
2022-09-28T00:06:30.442Z,99.90
2022-09-28T00:09:02.142Z,99.90
2022-09-28T00:11:33.950Z,99.90
2022-09-28T00:14:07.479Z,99.90
2022-09-28T00:16:41.019Z,99.90
2022-09-28T00:19:13.579Z,99.90
2022-09-28T00:21:46.127Z,99.90
2022-09-28T00:24:24.038Z,99.90
2022-09-28T00:27:01.528Z,99.90
2022-09-28T00:29:34.606Z,99.90
2022-09-28T00:32:11.837Z,99.90
2022-09-28T00:34:55.166Z,99.90
2022-09-28T00:37:30.242Z,99.90
2022-09-28T00:40:05.132Z,99.90
2022-09-28T00:42:36.956Z,99.90
2022-09-28T00:45:11.359Z,99.90
2022-09-28T00:47:47.221Z,99.90
2022-09-28T00:50:21.075Z,99.90
2022-09-28T00:52:53.395Z,99.90
2022-09-28T00:55:42.896Z,99.90
2022-09-28T00:58:18.153Z,99.90
2022-09-28T01:00:50.179Z,99.90
2022-09-28T01:03:27.868Z,99.90
2022-09-28T01:06:02.335Z,99.90
2022-09-28T01:08:34.783Z,99.90
2022-09-28T01:11:06.518Z,99.90
2022-09-28T01:13:38.795Z,99.90
2022-09-28T01:16:25.547Z,99.90
2022-09-28T01:19:14.418Z,99.90
2022-09-28T01:21:48.866Z,99.90
2022-09-28T01:24:40.930Z,99.90
2022-09-28T01:27:24.604Z,99.90
2022-09-28T01:30:07.547Z,99.90
2022-09-28T01:32:57.921Z,99.90
2022-09-28T01:35:33.021Z,99.90
2022-09-28T01:38:10.482Z,99.90
2022-09-28T01:40:46.202Z,99.90
2022-09-28T01:43:20.522Z,99.90
2022-09-28T01:45:58.213Z,99.90
2022-09-28T01:48:32.454Z,99.90
2022-09-28T01:51:08.263Z,99.90
2022-09-28T01:53:42.145Z,99.90
2022-09-28T01:56:17.887Z,99.90
2022-09-28T01:58:53.244Z,99.90
2022-09-28T02:01:29.116Z,99.90
2022-09-28T02:04:04.830Z,99.90
2022-09-28T02:06:38.926Z,99.90
2022-09-28T02:09:11.866Z,99.90
2022-09-28T02:11:45.711Z,99.90
2022-09-28T02:14:18.203Z,99.90
2022-09-28T02:16:51.911Z,99.90
2022-09-28T02:19:25.909Z,99.90
2022-09-28T02:22:00.290Z,99.90
2022-09-28T02:24:34.956Z,99.90
2022-09-28T02:27:12.940Z,99.90
2022-09-28T02:29:44.672Z,99.90
2022-09-28T02:32:19.796Z,99.90
2022-09-28T02:34:51.782Z,99.90
2022-09-28T02:37:23.605Z,99.90
2022-09-28T02:39:55.504Z,99.90
2022-09-28T02:42:29.371Z,99.90
2022-09-28T02:45:01.347Z,99.90
2022-09-28T02:47:33.329Z,99.90
2022-09-28T02:50:17.390Z,99.90
2022-09-28T02:53:07.848Z,99.90
2022-09-28T02:55:42.614Z,99.90
2022-09-28T02:58:14.409Z,99.90
2022-09-28T03:00:51.995Z,99.90
2022-09-28T03:03:43.970Z,99.90
2022-09-28T03:06:24.973Z,99.90
2022-09-28T03:08:59.847Z,99.90
2022-09-28T03:11:40.830Z,99.90
2022-09-28T03:14:15.396Z,99.90
2022-09-28T03:16:47.240Z,99.90
2022-09-28T03:19:21.424Z,99.90
2022-09-28T03:21:53.185Z,99.90
2022-09-28T03:24:25.083Z,99.90
2022-09-28T03:26:56.801Z,99.90
2022-09-28T03:29:31.509Z,99.90
2022-09-28T03:32:03.288Z,99.90
2022-09-28T03:34:35.742Z,99.90
2022-09-28T03:37:09.811Z,99.90
2022-09-28T03:39:43.970Z,99.90
2022-09-28T03:42:15.689Z,99.90
2022-09-28T03:44:47.412Z,99.90
2022-09-28T03:47:19.494Z,99.90
2022-09-28T03:49:51.247Z,99.90
2022-09-28T03:52:22.979Z,99.90
2022-09-28T03:54:54.739Z,99.90
2022-09-28T03:57:26.417Z,99.90
2022-09-28T04:00:00.560Z,99.90
2022-09-28T04:02:34.732Z,99.90
2022-09-28T04:05:06.611Z,99.90
2022-09-28T04:07:38.344Z,99.90
2022-09-28T04:10:10.126Z,99.90
2022-09-28T04:12:41.858Z,99.90
2022-09-28T04:15:13.669Z,99.90
2022-09-28T04:17:48.506Z,99.90
2022-09-28T04:20:25.671Z,99.90
2022-09-28T04:22:58.231Z,99.90
2022-09-28T04:25:30.013Z,99.90
2022-09-28T04:28:20.653Z,99.90
2022-09-28T04:30:52.422Z,99.90
2022-09-28T04:33:26.353Z,99.90
2022-09-28T04:35:58.138Z,99.90
2022-09-28T04:38:51.407Z,99.90
2022-09-28T04:41:24.037Z,99.90
2022-09-28T04:43:55.796Z,99.90
2022-09-28T04:46:29.707Z,99.90
2022-09-28T04:49:01.669Z,99.90
2022-09-28T04:51:33.471Z,99.90
2022-09-28T04:54:05.249Z,99.90
2022-09-28T04:56:36.982Z,99.90
2022-09-28T04:59:08.749Z,99.90
2022-09-28T05:01:40.577Z,99.90
2022-09-28T05:04:12.303Z,99.90
2022-09-28T05:06:44.107Z,99.90
2022-09-28T05:09:16.033Z,99.90
2022-09-28T05:11:53.158Z,99.90
2022-09-28T05:14:24.905Z,99.90
2022-09-28T05:16:56.761Z,99.90
2022-09-28T05:19:28.681Z,99.90
2022-09-28T05:22:04.153Z,99.90
2022-09-28T05:24:35.867Z,99.90
2022-09-28T05:27:07.776Z,99.90
2022-09-28T05:29:39.504Z,99.90
2022-09-28T05:32:13.523Z,99.90
2022-09-28T05:34:45.224Z,99.90
2022-09-28T05:37:17.038Z,99.90
2022-09-28T05:39:48.731Z,99.90
2022-09-28T05:42:20.549Z,99.90
2022-09-28T05:44:53.148Z,99.90
2022-09-28T05:47:26.052Z,99.90
2022-09-28T05:49:57.760Z,99.90
2022-09-28T05:52:29.492Z,99.90
2022-09-28T05:55:02.112Z,99.90
2022-09-28T05:57:33.877Z,99.90
2022-09-28T06:00:05.989Z,99.90
2022-09-28T06:02:40.417Z,99.90
2022-09-28T06:05:12.227Z,99.90
2022-09-28T06:07:44.110Z,99.90
2022-09-28T06:10:15.876Z,99.90
2022-09-28T06:12:48.759Z,99.90
2022-09-28T06:15:22.916Z,99.90
2022-09-28T06:18:05.739Z,99.90
2022-09-28T06:20:38.520Z,99.90
2022-09-28T06:23:11.192Z,99.90
2022-09-28T06:25:42.951Z,99.90
2022-09-28T06:28:14.976Z,99.90
2022-09-28T06:30:48.305Z,99.90
2022-09-28T06:33:20.110Z,99.90
2022-09-28T06:35:54.196Z,99.90
2022-09-28T06:38:25.974Z,99.90
2022-09-28T06:40:58.006Z,99.90
2022-09-28T06:43:34.118Z,99.90
2022-09-28T06:46:09.836Z,99.90
2022-09-28T06:48:41.865Z,99.90
2022-09-28T06:51:13.606Z,99.90
2022-09-28T06:53:45.406Z,99.90
2022-09-28T06:56:18.152Z,99.90
2022-09-28T06:58:49.929Z,99.90
2022-09-28T07:01:21.696Z,99.90
2022-09-28T07:03:55.725Z,99.90
2022-09-28T07:06:31.594Z,99.90
2022-09-28T07:09:27.730Z,99.90
2022-09-28T07:11:58.671Z,99.90
2022-09-28T07:14:46.780Z,99.90
2022-09-28T07:17:19.813Z,99.90
2022-09-28T07:19:52.793Z,99.90
2022-09-28T07:22:37.933Z,99.90
2022-09-28T07:25:14.339Z,99.90
2022-09-28T07:27:47.195Z,99.90
2022-09-28T07:30:20.436Z,99.90
2022-09-28T07:32:52.435Z,99.90
2022-09-28T07:35:24.287Z,99.90
2022-09-28T07:38:00.495Z,99.90
2022-09-28T07:40:51.622Z,99.90
2022-09-28T07:43:25.569Z,99.90
2022-09-28T07:45:57.631Z,99.90
2022-09-28T07:48:32.298Z,99.90
2022-09-28T07:51:04.325Z,99.90
2022-09-28T07:53:38.265Z,99.90
2022-09-28T07:56:10.080Z,99.90
2022-09-28T07:58:41.816Z,99.90
2022-09-28T08:01:16.744Z,99.90
2022-09-28T08:03:48.656Z,99.90
2022-09-28T08:06:20.422Z,99.90
2022-09-28T08:08:56.283Z,99.90
2022-09-28T08:11:28.102Z,99.90
2022-09-28T08:14:02.324Z,99.90
2022-09-28T08:16:34.155Z,99.90
2022-09-28T08:19:08.401Z,99.90
2022-09-28T08:21:46.317Z,99.90
2022-09-28T08:24:19.245Z,99.90
2022-09-28T08:26:51.156Z,99.90
2022-09-28T08:29:23.294Z,99.90
2022-09-28T08:31:58.354Z,99.90
2022-09-28T08:34:33.054Z,99.90
2022-09-28T08:37:05.478Z,99.90
2022-09-28T08:39:37.175Z,99.90
2022-09-28T08:42:08.963Z,99.90
2022-09-28T08:44:45.344Z,99.90
2022-09-28T08:47:38.791Z,99.90
2022-09-28T08:50:15.183Z,99.90
2022-09-28T08:52:52.382Z,99.90
2022-09-28T08:55:28.698Z,99.90
2022-09-28T08:58:03.445Z,99.90
2022-09-28T09:00:48.762Z,99.90
2022-09-28T09:03:28.489Z,99.90
2022-09-28T09:06:00.480Z,99.90
2022-09-28T09:08:41.336Z,99.90
2022-09-28T09:11:29.819Z,99.90
2022-09-28T09:14:12.328Z,99.90
2022-09-28T09:16:44.202Z,99.90
2022-09-28T09:19:36.292Z,99.90
2022-09-28T09:22:20.419Z,99.90
2022-09-28T09:24:59.089Z,99.90
2022-09-28T09:27:33.989Z,99.90
2022-09-28T09:30:07.006Z,99.90
2022-09-28T09:32:55.419Z,99.90
2022-09-28T09:35:30.848Z,99.90
2022-09-28T09:38:17.465Z,99.90
2022-09-28T09:41:09.541Z,99.90
2022-09-28T09:43:59.945Z,99.90
2022-09-28T09:46:40.771Z,99.90
2022-09-28T09:49:16.299Z,99.90
2022-09-28T09:51:48.078Z,99.90
2022-09-28T09:54:49.422Z,99.90
2022-09-28T09:57:34.472Z,99.90
2022-09-28T10:00:12.098Z,99.90
2022-09-28T10:02:48.589Z,99.90
2022-09-28T10:05:22.336Z,99.90
2022-09-28T10:07:57.429Z,99.90
2022-09-28T10:10:38.843Z,99.90
2022-09-28T10:13:11.036Z,99.90
2022-09-28T10:15:43.158Z,99.90
2022-09-28T10:18:16.153Z,99.90
2022-09-28T10:20:47.904Z,99.90
2022-09-28T10:23:24.913Z,99.90
2022-09-28T10:26:03.133Z,99.90
2022-09-28T10:28:48.254Z,99.90
2022-09-28T10:31:47.381Z,99.90
2022-09-28T10:34:25.347Z,99.90
2022-09-28T10:37:00.589Z,99.90
2022-09-28T10:39:36.701Z,99.90
2022-09-28T10:42:09.973Z,99.90
2022-09-28T10:44:53.003Z,99.90
2022-09-28T10:47:26.250Z,99.90
2022-09-28T10:49:58.755Z,99.90
2022-09-28T10:52:36.414Z,99.90
2022-09-28T10:55:26.709Z,99.90
2022-09-28T10:57:59.354Z,99.90
2022-09-28T11:00:41.866Z,99.90
2022-09-28T11:03:23.119Z,99.90
2022-09-28T11:05:54.835Z,99.90
2022-09-28T11:08:28.542Z,99.90
2022-09-28T11:11:13.793Z,99.90
2022-09-28T11:13:47.576Z,99.90
2022-09-28T11:16:22.260Z,99.90
2022-09-28T11:18:54.562Z,99.90
2022-09-28T11:21:32.832Z,99.90
2022-09-28T11:24:06.564Z,99.90
2022-09-28T11:26:40.906Z,99.90
2022-09-28T11:29:20.023Z,99.90
2022-09-28T11:31:52.202Z,99.90
2022-09-28T11:34:41.496Z,99.90
2022-09-28T11:37:24.705Z,99.90
2022-09-28T11:40:08.654Z,99.90
2022-09-28T11:42:59.317Z,99.90
2022-09-28T11:45:40.459Z,99.90
2022-09-28T11:48:15.788Z,99.90
2022-09-28T11:50:53.862Z,99.90
2022-09-28T11:53:36.909Z,99.90
2022-09-28T11:56:18.910Z,99.90
2022-09-28T11:58:55.726Z,99.90
2022-09-28T12:01:31.325Z,99.90
2022-09-28T12:04:15.197Z,99.90
2022-09-28T12:06:50.883Z,99.90
2022-09-28T12:09:27.578Z,99.90
2022-09-28T12:12:02.539Z,99.90
2022-09-28T12:14:35.767Z,99.90
2022-09-28T12:17:16.586Z,99.90
2022-09-28T12:20:04.103Z,99.90
2022-09-28T12:22:45.131Z,99.90
2022-09-28T12:25:22.001Z,98.00
2022-09-28T12:27:56.172Z,99.90
2022-09-28T12:30:30.956Z,53.80
2022-09-28T12:33:09.366Z,59.40
2022-09-28T12:35:53.311Z,52.60
2022-09-28T12:39:17.668Z,31.70
2022-09-28T12:42:07.789Z,27.30
2022-09-28T12:45:00.587Z,82.40
2022-09-28T12:47:32.398Z,50.60
2022-09-28T12:53:15.007Z,30.70
2022-09-28T12:55:54.267Z,47.60
2022-09-28T12:58:44.631Z,18.20
2022-09-28T13:01:16.376Z,17.20
2022-09-28T13:04:12.792Z,16.10
2022-09-28T13:06:45.216Z,15.40
2022-09-28T13:09:22.214Z,19.00
2022-09-28T13:12:07.925Z,12.70
2022-09-28T13:14:53.246Z,14.80
2022-09-28T13:17:38.830Z,2.50
2022-09-28T13:20:19.617Z,10.00
2022-09-28T13:23:07.306Z,33.10
2022-09-28T13:25:41.043Z,30.60
2022-09-28T13:28:15.628Z,1.60
2022-09-28T13:30:48.380Z,1.60
2022-09-28T13:33:24.690Z,1.00
2022-09-28T13:35:56.991Z,4.10
2022-09-28T13:38:29.885Z,1.00
2022-09-28T13:41:04.750Z,1.00
2022-09-28T13:43:48.865Z,1.00
2022-09-28T13:46:39.472Z,1.00
2022-09-28T13:49:17.339Z,4.30
2022-09-28T13:51:55.467Z,1.00
2022-09-28T13:54:30.275Z,1.00
2022-09-28T13:57:11.042Z,16.50
2022-09-28T13:59:52.091Z,6.00
2022-09-28T14:02:45.545Z,20.70
2022-09-28T14:05:23.462Z,28.60
2022-09-28T14:08:11.280Z,34.10
2022-09-28T14:10:52.156Z,40.60
2022-09-28T14:13:49.993Z,26.80
2022-09-28T14:16:22.861Z,37.70
2022-09-28T14:18:56.076Z,55.40
2022-09-28T14:21:30.619Z,42.30
2022-09-28T14:24:15.369Z,3.20
2022-09-28T14:26:56.317Z,16.10
2022-09-28T14:29:29.151Z,2.00
2022-09-28T14:32:05.646Z,17.60
2022-09-28T14:34:42.707Z,8.00
2022-09-28T14:37:38.143Z,28.20
2022-09-28T14:40:34.724Z,30.80
2022-09-28T14:43:24.975Z,59.10
2022-09-28T14:46:12.975Z,15.10
2022-09-28T14:48:52.761Z,7.50
2022-09-28T14:51:30.301Z,14.50
2022-09-28T14:54:08.982Z,21.80
2022-09-28T14:56:43.855Z,28.10
2022-09-28T14:59:26.235Z,32.50
2022-09-28T15:02:05.748Z,48.50
2022-09-28T15:04:40.217Z,43.50
2022-09-28T15:07:27.158Z,87.80
2022-09-28T15:10:00.309Z,90.10
2022-09-28T15:12:35.092Z,92.30
2022-09-28T15:15:17.501Z,99.90
2022-09-28T15:17:53.021Z,99.90
2022-09-28T15:20:36.583Z,99.90
2022-09-28T15:23:23.231Z,99.90
2022-09-28T15:25:55.413Z,99.90
2022-09-28T15:28:27.150Z,99.90
2022-09-28T15:31:00.427Z,99.90
2022-09-28T15:33:51.878Z,99.90
2022-09-28T15:36:28.802Z,99.90
2022-09-28T15:39:01.671Z,99.90
2022-09-28T15:41:34.174Z,99.90
2022-09-28T15:44:18.499Z,99.90
2022-09-28T15:46:53.693Z,99.90
2022-09-28T15:49:39.127Z,99.90
2022-09-28T15:52:23.198Z,99.90
2022-09-28T15:54:55.470Z,99.90
2022-09-28T15:57:38.798Z,99.90
2022-09-28T16:00:36.979Z,99.90
2022-09-28T16:03:08.949Z,99.90
2022-09-28T16:05:43.023Z,99.90
2022-09-28T16:08:22.153Z,99.90
2022-09-28T16:11:07.817Z,99.90
2022-09-28T16:13:54.455Z,99.90
2022-09-28T16:16:27.982Z,99.90
2022-09-28T16:19:00.887Z,99.90
2022-09-28T16:21:42.663Z,99.90
2022-09-28T16:24:22.534Z,99.90
2022-09-28T16:26:58.839Z,99.90
2022-09-28T16:29:40.312Z,99.90
2022-09-28T16:32:27.695Z,99.90
2022-09-28T16:35:08.547Z,99.90
2022-09-28T16:37:42.691Z,99.90
2022-09-28T16:40:14.565Z,99.90
2022-09-28T16:42:49.020Z,99.90
2022-09-28T16:45:23.401Z,99.90
2022-09-28T16:47:56.175Z,99.90
2022-09-28T16:50:27.900Z,99.90
2022-09-28T16:53:20.433Z,99.90
2022-09-28T16:55:52.156Z,99.90
2022-09-28T16:58:25.256Z,99.90
2022-09-28T17:00:57.916Z,99.90
2022-09-28T17:03:29.891Z,99.90
2022-09-28T17:06:06.322Z,99.90
2022-09-28T17:08:38.161Z,99.90
2022-09-28T17:11:18.982Z,99.90
2022-09-28T17:13:59.043Z,99.90
2022-09-28T17:16:59.937Z,99.90
2022-09-28T17:19:24.723Z,99.90
2022-09-28T17:21:56.470Z,99.90
2022-09-28T17:24:28.175Z,99.90
2022-09-28T17:27:00.934Z,99.90
2022-09-28T17:29:32.748Z,99.90
2022-09-28T17:32:08.957Z,99.90
2022-09-28T17:34:40.682Z,99.90
2022-09-28T17:37:16.532Z,99.90
2022-09-28T17:39:48.268Z,99.90
2022-09-28T17:42:20.002Z,99.90
2022-09-28T17:44:52.023Z,99.90
2022-09-28T17:47:23.751Z,99.90
2022-09-28T17:49:55.529Z,99.90
2022-09-28T17:52:27.249Z,99.90
2022-09-28T17:54:59.022Z,99.90
2022-09-28T17:57:30.771Z,99.90
2022-09-28T18:00:02.772Z,99.90
2022-09-28T18:02:34.496Z,99.90
2022-09-28T18:05:06.410Z,99.90
2022-09-28T18:07:38.397Z,99.90
2022-09-28T18:10:24.128Z,99.90
2022-09-28T18:12:55.933Z,99.90
2022-09-28T18:15:29.859Z,99.90
2022-09-28T18:18:01.679Z,99.90
2022-09-28T18:20:34.626Z,99.90
2022-09-28T18:23:06.368Z,99.90
2022-09-28T18:25:42.135Z,99.90
2022-09-28T18:28:14.111Z,99.90
2022-09-28T18:30:45.986Z,99.90
2022-09-28T18:33:17.851Z,99.90
2022-09-28T18:35:54.120Z,99.90
2022-09-28T18:38:27.993Z,99.90
2022-09-28T18:41:06.743Z,99.90
2022-09-28T18:43:40.580Z,99.90
2022-09-28T18:46:12.431Z,99.90
2022-09-28T18:48:47.791Z,99.90
2022-09-28T18:51:20.632Z,99.90
2022-09-28T18:53:52.499Z,99.90
2022-09-28T18:56:27.200Z,99.90
2022-09-28T18:59:00.137Z,99.90
2022-09-28T19:01:32.217Z,99.90
2022-09-28T19:04:06.844Z,99.90
2022-09-28T19:06:40.961Z,99.90
2022-09-28T19:09:13.294Z,99.90
2022-09-28T19:11:46.673Z,99.90
2022-09-28T19:14:18.705Z,99.90
2022-09-28T19:16:51.103Z,99.90
2022-09-28T19:19:22.861Z,99.90
2022-09-28T19:21:54.928Z,99.90
2022-09-28T19:24:27.756Z,99.90
2022-09-28T19:27:00.168Z,99.90
2022-09-28T19:29:31.988Z,99.90
2022-09-28T19:32:03.766Z,99.90
2022-09-28T19:34:35.596Z,99.90
2022-09-28T19:37:07.460Z,99.90
2022-09-28T19:39:40.586Z,99.90
2022-09-28T19:42:13.435Z,99.90
2022-09-28T19:44:45.616Z,99.90
2022-09-28T19:47:21.774Z,99.90
2022-09-28T19:49:53.595Z,99.90
2022-09-28T19:52:26.514Z,99.90
2022-09-28T19:55:01.137Z,99.90
2022-09-28T19:57:35.473Z,99.90
2022-09-28T20:00:07.707Z,99.90
2022-09-28T20:02:39.537Z,99.90
2022-09-28T20:05:11.299Z,99.90
2022-09-28T20:07:43.054Z,99.90
2022-09-28T20:10:14.792Z,99.90
2022-09-28T20:12:46.591Z,99.90
2022-09-28T20:15:18.285Z,99.90
2022-09-28T20:17:50.045Z,99.90
2022-09-28T20:20:21.881Z,99.90
2022-09-28T20:22:54.414Z,99.90
2022-09-28T20:25:26.420Z,99.90
2022-09-28T20:27:58.524Z,99.90
2022-09-28T20:30:30.539Z,99.90
2022-09-28T20:33:02.305Z,99.90
2022-09-28T20:35:34.285Z,99.90
2022-09-28T20:38:09.199Z,99.90
2022-09-28T20:40:42.073Z,99.90
2022-09-28T20:43:15.285Z,99.90
2022-09-28T20:45:52.174Z,99.90
2022-09-28T20:48:25.305Z,99.90
2022-09-28T20:51:04.519Z,99.90
2022-09-28T20:53:37.103Z,99.90
2022-09-28T20:56:20.121Z,99.90
2022-09-28T20:58:52.232Z,99.90
2022-09-28T21:01:25.179Z,99.90
2022-09-28T21:04:00.928Z,99.90
2022-09-28T21:06:34.580Z,99.90
2022-09-28T21:09:07.108Z,99.90
2022-09-28T21:11:38.926Z,99.90
2022-09-28T21:14:13.134Z,99.90
2022-09-28T21:16:44.921Z,99.90
2022-09-28T21:19:16.678Z,99.90
2022-09-28T21:21:48.424Z,99.90
2022-09-28T21:24:20.355Z,99.90
2022-09-28T21:26:52.183Z,99.90
2022-09-28T21:29:23.925Z,99.90
2022-09-28T21:31:58.099Z,99.90
2022-09-28T21:34:29.833Z,99.90
2022-09-28T21:37:01.583Z,99.90
2022-09-28T21:39:33.343Z,99.90
2022-09-28T21:42:05.112Z,99.90
2022-09-28T21:44:36.848Z,99.90
2022-09-28T21:47:08.916Z,99.90
2022-09-28T21:49:40.669Z,99.90
2022-09-28T21:52:12.901Z,99.90
2022-09-28T21:54:44.662Z,99.90
2022-09-28T21:57:18.894Z,99.90
2022-09-28T21:59:53.150Z,99.90
2022-09-28T22:02:27.248Z,99.90
2022-09-28T22:04:59.382Z,99.90
2022-09-28T22:07:31.088Z,99.90
2022-09-28T22:10:03.034Z,99.90
2022-09-28T22:12:34.790Z,99.90
2022-09-28T22:15:06.936Z,99.90
2022-09-28T22:17:38.701Z,99.90
2022-09-28T22:20:10.453Z,99.90
2022-09-28T22:22:42.173Z,99.90
2022-09-28T22:25:14.386Z,99.90
2022-09-28T22:27:46.226Z,99.90
2022-09-28T22:30:18.102Z,99.90
2022-09-28T22:32:49.939Z,99.90
2022-09-28T22:35:21.724Z,99.90
2022-09-28T22:37:53.444Z,99.90
2022-09-28T22:40:25.437Z,99.90
2022-09-28T22:42:57.220Z,99.90
2022-09-28T22:45:31.373Z,99.90
2022-09-28T22:48:03.116Z,99.90
2022-09-28T22:50:34.993Z,99.90
2022-09-28T22:53:06.737Z,99.90
2022-09-28T22:55:38.792Z,99.90
2022-09-28T22:58:10.636Z,99.90
2022-09-28T23:00:43.445Z,99.90
2022-09-28T23:03:15.424Z,99.90
2022-09-28T23:05:54.222Z,99.90
2022-09-28T23:08:25.978Z,99.90
2022-09-28T23:11:00.085Z,99.90
2022-09-28T23:13:32.250Z,99.90
2022-09-28T23:16:05.644Z,99.90
2022-09-28T23:18:38.517Z,99.90
2022-09-28T23:21:17.911Z,99.90
2022-09-28T23:23:57.063Z,99.90
2022-09-28T23:26:32.609Z,99.90
2022-09-28T23:29:04.442Z,99.90
2022-09-28T23:31:36.611Z,99.90
2022-09-28T23:34:10.331Z,99.90
2022-09-28T23:36:42.134Z,99.90
2022-09-28T23:39:14.210Z,99.90
2022-09-28T23:41:46.042Z,99.90
2022-09-28T23:44:18.067Z,99.90
2022-09-28T23:46:49.878Z,99.90
2022-09-28T23:49:24.103Z,99.90
2022-09-28T23:51:56.377Z,99.90
2022-09-28T23:54:30.375Z,99.90
2022-09-28T23:57:02.156Z,99.90
2022-09-28T23:59:33.876Z,99.90
